sensor_id;sensor_type;location;lat;lon;timestamp;P1;durP1;ratioP1;P2;durP2;ratioP2
52564;SDS011;38460;53.106;7.004;2022-11-20T00:00:09;22.30;;;12.07;;
52564;SDS011;38460;53.106;7.004;2022-11-20T00:02:35;17.42;;;12.30;;
52564;SDS011;38460;53.106;7.004;2022-11-20T00:05:01;20.10;;;14.32;;
52564;SDS011;38460;53.106;7.004;2022-11-20T00:07:26;21.85;;;14.65;;
52564;SDS011;38460;53.106;7.004;2022-11-20T00:09:52;21.45;;;12.70;;
52564;SDS011;38460;53.106;7.004;2022-11-20T00:12:18;19.35;;;12.52;;
52564;SDS011;38460;53.106;7.004;2022-11-20T00:14:43;24.17;;;13.32;;
52564;SDS011;38460;53.106;7.004;2022-11-20T00:17:09;21.50;;;13.40;;
52564;SDS011;38460;53.106;7.004;2022-11-20T00:19:35;23.23;;;13.65;;
52564;SDS011;38460;53.106;7.004;2022-11-20T00:22:00;22.10;;;13.80;;
52564;SDS011;38460;53.106;7.004;2022-11-20T00:24:26;20.88;;;13.25;;
52564;SDS011;38460;53.106;7.004;2022-11-20T00:26:52;23.08;;;14.60;;
52564;SDS011;38460;53.106;7.004;2022-11-20T00:29:18;23.38;;;15.32;;
52564;SDS011;38460;53.106;7.004;2022-11-20T00:31:43;23.52;;;14.50;;
52564;SDS011;38460;53.106;7.004;2022-11-20T00:34:09;21.90;;;13.77;;
52564;SDS011;38460;53.106;7.004;2022-11-20T00:36:35;20.15;;;14.00;;
52564;SDS011;38460;53.106;7.004;2022-11-20T00:39:01;23.13;;;14.35;;
52564;SDS011;38460;53.106;7.004;2022-11-20T00:41:27;21.98;;;13.05;;
52564;SDS011;38460;53.106;7.004;2022-11-20T00:43:54;21.63;;;13.32;;
52564;SDS011;38460;53.106;7.004;2022-11-20T00:46:22;20.55;;;13.65;;
52564;SDS011;38460;53.106;7.004;2022-11-20T00:48:49;21.33;;;13.63;;
52564;SDS011;38460;53.106;7.004;2022-11-20T00:51:19;16.60;;;12.07;;
52564;SDS011;38460;53.106;7.004;2022-11-20T00:53:47;18.27;;;10.88;;
52564;SDS011;38460;53.106;7.004;2022-11-20T00:56:15;18.15;;;11.15;;
52564;SDS011;38460;53.106;7.004;2022-11-20T00:58:43;17.13;;;12.30;;
52564;SDS011;38460;53.106;7.004;2022-11-20T01:01:12;21.65;;;11.57;;
52564;SDS011;38460;53.106;7.004;2022-11-20T01:03:40;18.40;;;10.90;;
52564;SDS011;38460;53.106;7.004;2022-11-20T01:06:15;17.58;;;11.02;;
52564;SDS011;38460;53.106;7.004;2022-11-20T01:08:46;16.98;;;10.60;;
52564;SDS011;38460;53.106;7.004;2022-11-20T01:11:16;15.25;;;11.15;;
52564;SDS011;38460;53.106;7.004;2022-11-20T01:13:44;17.02;;;10.38;;
52564;SDS011;38460;53.106;7.004;2022-11-20T01:18:49;16.63;;;10.32;;
52564;SDS011;38460;53.106;7.004;2022-11-20T01:21:17;17.95;;;11.57;;
52564;SDS011;38460;53.106;7.004;2022-11-20T01:23:48;18.83;;;11.18;;
52564;SDS011;38460;53.106;7.004;2022-11-20T01:26:15;18.17;;;11.52;;
52564;SDS011;38460;53.106;7.004;2022-11-20T01:28:43;17.67;;;11.40;;
52564;SDS011;38460;53.106;7.004;2022-11-20T01:33:42;16.13;;;11.18;;
52564;SDS011;38460;53.106;7.004;2022-11-20T01:36:10;18.80;;;11.38;;
52564;SDS011;38460;53.106;7.004;2022-11-20T01:38:36;15.80;;;11.15;;
52564;SDS011;38460;53.106;7.004;2022-11-20T01:41:03;19.02;;;10.80;;
52564;SDS011;38460;53.106;7.004;2022-11-20T01:43:29;17.85;;;10.73;;
52564;SDS011;38460;53.106;7.004;2022-11-20T01:46:06;16.45;;;10.60;;
52564;SDS011;38460;53.106;7.004;2022-11-20T01:51:55;16.83;;;10.55;;
52564;SDS011;38460;53.106;7.004;2022-11-20T01:54:40;18.88;;;11.57;;
52564;SDS011;38460;53.106;7.004;2022-11-20T01:57:21;19.02;;;11.93;;
52564;SDS011;38460;53.106;7.004;2022-11-20T01:59:52;15.90;;;10.30;;
52564;SDS011;38460;53.106;7.004;2022-11-20T02:02:28;19.23;;;11.50;;
52564;SDS011;38460;53.106;7.004;2022-11-20T02:04:54;17.10;;;11.23;;
52564;SDS011;38460;53.106;7.004;2022-11-20T02:07:23;18.38;;;11.63;;
52564;SDS011;38460;53.106;7.004;2022-11-20T02:09:50;16.55;;;11.27;;
52564;SDS011;38460;53.106;7.004;2022-11-20T02:12:16;20.90;;;12.18;;
52564;SDS011;38460;53.106;7.004;2022-11-20T02:15:00;17.00;;;11.70;;
52564;SDS011;38460;53.106;7.004;2022-11-20T02:17:26;18.58;;;11.18;;
52564;SDS011;38460;53.106;7.004;2022-11-20T02:19:52;19.75;;;11.82;;
52564;SDS011;38460;53.106;7.004;2022-11-20T02:22:25;19.73;;;11.60;;
52564;SDS011;38460;53.106;7.004;2022-11-20T02:24:59;17.90;;;11.20;;
52564;SDS011;38460;53.106;7.004;2022-11-20T02:27:27;17.27;;;11.27;;
52564;SDS011;38460;53.106;7.004;2022-11-20T02:30:04;20.48;;;10.98;;
52564;SDS011;38460;53.106;7.004;2022-11-20T02:32:36;16.15;;;10.43;;
52564;SDS011;38460;53.106;7.004;2022-11-20T02:37:43;16.55;;;10.82;;
52564;SDS011;38460;53.106;7.004;2022-11-20T02:40:12;16.15;;;11.25;;
52564;SDS011;38460;53.106;7.004;2022-11-20T02:42:38;18.52;;;10.90;;
52564;SDS011;38460;53.106;7.004;2022-11-20T02:45:04;16.25;;;11.50;;
52564;SDS011;38460;53.106;7.004;2022-11-20T02:47:31;17.20;;;11.07;;
52564;SDS011;38460;53.106;7.004;2022-11-20T02:49:57;13.68;;;10.25;;
52564;SDS011;38460;53.106;7.004;2022-11-20T02:52:23;17.35;;;11.07;;
52564;SDS011;38460;53.106;7.004;2022-11-20T02:54:49;16.88;;;10.35;;
52564;SDS011;38460;53.106;7.004;2022-11-20T02:57:14;15.27;;;10.50;;
52564;SDS011;38460;53.106;7.004;2022-11-20T02:59:40;16.77;;;11.10;;
52564;SDS011;38460;53.106;7.004;2022-11-20T03:02:06;22.90;;;11.75;;
52564;SDS011;38460;53.106;7.004;2022-11-20T03:04:32;17.08;;;11.25;;
52564;SDS011;38460;53.106;7.004;2022-11-20T03:06:58;18.67;;;11.65;;
52564;SDS011;38460;53.106;7.004;2022-11-20T03:09:23;18.60;;;11.82;;
52564;SDS011;38460;53.106;7.004;2022-11-20T03:11:49;21.40;;;12.80;;
52564;SDS011;38460;53.106;7.004;2022-11-20T03:14:15;20.60;;;12.65;;
52564;SDS011;38460;53.106;7.004;2022-11-20T03:16:40;23.40;;;13.60;;
52564;SDS011;38460;53.106;7.004;2022-11-20T03:19:06;17.33;;;12.05;;
52564;SDS011;38460;53.106;7.004;2022-11-20T03:21:32;18.10;;;12.10;;
52564;SDS011;38460;53.106;7.004;2022-11-20T03:23:59;19.75;;;12.70;;
52564;SDS011;38460;53.106;7.004;2022-11-20T03:26:25;18.88;;;13.13;;
52564;SDS011;38460;53.106;7.004;2022-11-20T03:28:56;21.58;;;12.65;;
52564;SDS011;38460;53.106;7.004;2022-11-20T03:31:24;17.08;;;10.88;;
52564;SDS011;38460;53.106;7.004;2022-11-20T03:33:55;16.30;;;10.70;;
52564;SDS011;38460;53.106;7.004;2022-11-20T03:36:21;17.05;;;10.68;;
52564;SDS011;38460;53.106;7.004;2022-11-20T03:38:47;16.42;;;11.23;;
52564;SDS011;38460;53.106;7.004;2022-11-20T03:41:15;16.38;;;10.25;;
52564;SDS011;38460;53.106;7.004;2022-11-20T03:43:49;16.77;;;10.93;;
52564;SDS011;38460;53.106;7.004;2022-11-20T03:46:19;16.10;;;10.45;;
52564;SDS011;38460;53.106;7.004;2022-11-20T03:48:45;15.80;;;10.18;;
52564;SDS011;38460;53.106;7.004;2022-11-20T03:51:15;17.38;;;10.70;;
52564;SDS011;38460;53.106;7.004;2022-11-20T03:53:42;15.80;;;10.45;;
52564;SDS011;38460;53.106;7.004;2022-11-20T03:56:10;15.82;;;10.77;;
52564;SDS011;38460;53.106;7.004;2022-11-20T03:58:37;15.25;;;10.10;;
52564;SDS011;38460;53.106;7.004;2022-11-20T04:01:07;17.98;;;10.65;;
52564;SDS011;38460;53.106;7.004;2022-11-20T04:03:35;15.23;;;9.82;;
52564;SDS011;38460;53.106;7.004;2022-11-20T04:06:05;14.55;;;10.32;;
52564;SDS011;38460;53.106;7.004;2022-11-20T04:08:36;17.25;;;10.38;;
52564;SDS011;38460;53.106;7.004;2022-11-20T04:11:08;14.75;;;10.05;;
52564;SDS011;38460;53.106;7.004;2022-11-20T04:13:38;17.08;;;10.40;;
52564;SDS011;38460;53.106;7.004;2022-11-20T04:16:05;17.52;;;10.93;;
52564;SDS011;38460;53.106;7.004;2022-11-20T04:18:32;14.88;;;10.00;;
52564;SDS011;38460;53.106;7.004;2022-11-20T04:20:58;16.52;;;10.43;;
52564;SDS011;38460;53.106;7.004;2022-11-20T04:23:24;15.00;;;9.93;;
52564;SDS011;38460;53.106;7.004;2022-11-20T04:25:50;17.67;;;10.57;;
52564;SDS011;38460;53.106;7.004;2022-11-20T04:28:16;15.52;;;9.85;;
52564;SDS011;38460;53.106;7.004;2022-11-20T04:30:42;16.33;;;9.70;;
52564;SDS011;38460;53.106;7.004;2022-11-20T04:33:08;19.65;;;10.68;;
52564;SDS011;38460;53.106;7.004;2022-11-20T04:35:34;16.88;;;10.35;;
52564;SDS011;38460;53.106;7.004;2022-11-20T04:38:00;14.95;;;10.20;;
52564;SDS011;38460;53.106;7.004;2022-11-20T04:40:29;16.67;;;10.75;;
52564;SDS011;38460;53.106;7.004;2022-11-20T04:42:55;14.30;;;9.50;;
52564;SDS011;38460;53.106;7.004;2022-11-20T04:45:22;17.42;;;9.30;;
52564;SDS011;38460;53.106;7.004;2022-11-20T04:47:48;18.45;;;10.77;;
52564;SDS011;38460;53.106;7.004;2022-11-20T04:50:14;16.85;;;11.02;;
52564;SDS011;38460;53.106;7.004;2022-11-20T04:52:40;16.10;;;10.38;;
52564;SDS011;38460;53.106;7.004;2022-11-20T04:55:06;17.20;;;10.48;;
52564;SDS011;38460;53.106;7.004;2022-11-20T04:57:32;16.83;;;10.38;;
52564;SDS011;38460;53.106;7.004;2022-11-20T04:59:57;15.32;;;10.40;;
52564;SDS011;38460;53.106;7.004;2022-11-20T05:02:23;18.77;;;10.40;;
52564;SDS011;38460;53.106;7.004;2022-11-20T05:04:49;17.00;;;10.60;;
52564;SDS011;38460;53.106;7.004;2022-11-20T05:07:15;18.50;;;11.35;;
52564;SDS011;38460;53.106;7.004;2022-11-20T05:09:40;20.65;;;12.98;;
52564;SDS011;38460;53.106;7.004;2022-11-20T05:12:09;14.30;;;11.02;;
52564;SDS011;38460;53.106;7.004;2022-11-20T05:14:35;19.98;;;13.20;;
52564;SDS011;38460;53.106;7.004;2022-11-20T05:17:00;19.50;;;12.80;;
52564;SDS011;38460;53.106;7.004;2022-11-20T05:19:26;19.52;;;13.07;;
52564;SDS011;38460;53.106;7.004;2022-11-20T05:21:52;21.70;;;12.00;;
52564;SDS011;38460;53.106;7.004;2022-11-20T05:24:17;21.25;;;11.88;;
52564;SDS011;38460;53.106;7.004;2022-11-20T05:26:43;17.58;;;12.40;;
52564;SDS011;38460;53.106;7.004;2022-11-20T05:29:10;19.23;;;11.20;;
52564;SDS011;38460;53.106;7.004;2022-11-20T05:31:38;22.77;;;13.10;;
52564;SDS011;38460;53.106;7.004;2022-11-20T05:34:07;18.63;;;11.88;;
52564;SDS011;38460;53.106;7.004;2022-11-20T05:36:33;14.88;;;10.25;;
52564;SDS011;38460;53.106;7.004;2022-11-20T05:38:59;17.08;;;10.38;;
52564;SDS011;38460;53.106;7.004;2022-11-20T05:41:24;15.50;;;10.00;;
52564;SDS011;38460;53.106;7.004;2022-11-20T05:43:50;17.65;;;11.10;;
52564;SDS011;38460;53.106;7.004;2022-11-20T05:46:17;17.00;;;10.98;;
52564;SDS011;38460;53.106;7.004;2022-11-20T05:48:45;16.13;;;10.52;;
52564;SDS011;38460;53.106;7.004;2022-11-20T05:51:12;14.32;;;9.88;;
52564;SDS011;38460;53.106;7.004;2022-11-20T05:53:40;17.38;;;10.90;;
52564;SDS011;38460;53.106;7.004;2022-11-20T05:56:07;14.73;;;10.07;;
52564;SDS011;38460;53.106;7.004;2022-11-20T05:58:36;16.20;;;11.10;;
52564;SDS011;38460;53.106;7.004;2022-11-20T06:01:12;15.10;;;10.88;;
52564;SDS011;38460;53.106;7.004;2022-11-20T06:03:45;17.00;;;10.45;;
52564;SDS011;38460;53.106;7.004;2022-11-20T06:06:13;16.48;;;10.82;;
52564;SDS011;38460;53.106;7.004;2022-11-20T06:08:40;15.25;;;10.68;;
52564;SDS011;38460;53.106;7.004;2022-11-20T06:11:07;15.88;;;10.95;;
52564;SDS011;38460;53.106;7.004;2022-11-20T06:13:34;14.48;;;9.63;;
52564;SDS011;38460;53.106;7.004;2022-11-20T06:16:00;17.08;;;10.55;;
52564;SDS011;38460;53.106;7.004;2022-11-20T06:18:27;15.43;;;9.75;;
52564;SDS011;38460;53.106;7.004;2022-11-20T06:21:04;14.60;;;9.82;;
52564;SDS011;38460;53.106;7.004;2022-11-20T06:23:34;14.25;;;9.10;;
52564;SDS011;38460;53.106;7.004;2022-11-20T06:26:04;16.95;;;11.18;;
52564;SDS011;38460;53.106;7.004;2022-11-20T06:28:31;15.25;;;9.85;;
52564;SDS011;38460;53.106;7.004;2022-11-20T06:30:57;16.73;;;9.65;;
52564;SDS011;38460;53.106;7.004;2022-11-20T06:33:24;14.98;;;9.70;;
52564;SDS011;38460;53.106;7.004;2022-11-20T06:35:50;15.93;;;10.15;;
52564;SDS011;38460;53.106;7.004;2022-11-20T06:38:15;17.15;;;10.95;;
52564;SDS011;38460;53.106;7.004;2022-11-20T06:40:41;16.50;;;11.30;;
52564;SDS011;38460;53.106;7.004;2022-11-20T06:43:10;15.63;;;11.07;;
52564;SDS011;38460;53.106;7.004;2022-11-20T06:45:36;18.10;;;11.00;;
52564;SDS011;38460;53.106;7.004;2022-11-20T06:48:02;18.60;;;11.10;;
52564;SDS011;38460;53.106;7.004;2022-11-20T06:50:28;17.77;;;10.52;;
52564;SDS011;38460;53.106;7.004;2022-11-20T06:52:54;15.95;;;11.05;;
52564;SDS011;38460;53.106;7.004;2022-11-20T06:55:20;15.52;;;11.10;;
52564;SDS011;38460;53.106;7.004;2022-11-20T06:57:46;16.48;;;10.50;;
52564;SDS011;38460;53.106;7.004;2022-11-20T07:00:12;17.13;;;10.73;;
52564;SDS011;38460;53.106;7.004;2022-11-20T07:02:38;15.75;;;10.40;;
52564;SDS011;38460;53.106;7.004;2022-11-20T07:05:04;18.10;;;11.13;;
52564;SDS011;38460;53.106;7.004;2022-11-20T07:07:29;14.25;;;9.20;;
52564;SDS011;38460;53.106;7.004;2022-11-20T07:09:55;15.75;;;9.93;;
52564;SDS011;38460;53.106;7.004;2022-11-20T07:12:21;16.70;;;11.18;;
52564;SDS011;38460;53.106;7.004;2022-11-20T07:14:47;14.63;;;10.15;;
52564;SDS011;38460;53.106;7.004;2022-11-20T07:17:12;19.15;;;11.32;;
52564;SDS011;38460;53.106;7.004;2022-11-20T07:19:38;18.20;;;11.70;;
52564;SDS011;38460;53.106;7.004;2022-11-20T07:22:04;13.15;;;9.07;;
52564;SDS011;38460;53.106;7.004;2022-11-20T07:24:29;14.77;;;10.10;;
52564;SDS011;38460;53.106;7.004;2022-11-20T07:26:55;17.35;;;9.75;;
52564;SDS011;38460;53.106;7.004;2022-11-20T07:29:21;17.67;;;10.07;;
52564;SDS011;38460;53.106;7.004;2022-11-20T07:31:46;15.65;;;10.40;;
52564;SDS011;38460;53.106;7.004;2022-11-20T07:34:12;16.88;;;10.20;;
52564;SDS011;38460;53.106;7.004;2022-11-20T07:36:38;16.42;;;10.48;;
52564;SDS011;38460;53.106;7.004;2022-11-20T07:39:04;14.13;;;9.90;;
52564;SDS011;38460;53.106;7.004;2022-11-20T07:41:30;14.77;;;10.48;;
52564;SDS011;38460;53.106;7.004;2022-11-20T07:43:56;15.07;;;10.75;;
52564;SDS011;38460;53.106;7.004;2022-11-20T07:46:22;17.48;;;10.10;;
52564;SDS011;38460;53.106;7.004;2022-11-20T07:48:47;14.95;;;9.50;;
52564;SDS011;38460;53.106;7.004;2022-11-20T07:51:13;17.65;;;12.77;;
52564;SDS011;38460;53.106;7.004;2022-11-20T07:53:39;14.07;;;9.27;;
52564;SDS011;38460;53.106;7.004;2022-11-20T07:56:05;15.60;;;9.40;;
52564;SDS011;38460;53.106;7.004;2022-11-20T07:58:31;15.20;;;9.88;;
52564;SDS011;38460;53.106;7.004;2022-11-20T08:01:03;14.05;;;9.20;;
52564;SDS011;38460;53.106;7.004;2022-11-20T08:03:30;12.90;;;8.90;;
52564;SDS011;38460;53.106;7.004;2022-11-20T08:05:58;16.30;;;9.98;;
52564;SDS011;38460;53.106;7.004;2022-11-20T08:08:28;14.98;;;9.63;;
52564;SDS011;38460;53.106;7.004;2022-11-20T08:10:56;14.27;;;9.38;;
52564;SDS011;38460;53.106;7.004;2022-11-20T08:13:42;12.77;;;9.35;;
52564;SDS011;38460;53.106;7.004;2022-11-20T08:16:27;14.13;;;9.05;;
52564;SDS011;38460;53.106;7.004;2022-11-20T08:18:53;15.57;;;9.30;;
52564;SDS011;38460;53.106;7.004;2022-11-20T08:21:19;16.58;;;10.13;;
52564;SDS011;38460;53.106;7.004;2022-11-20T08:23:44;16.95;;;11.30;;
52564;SDS011;38460;53.106;7.004;2022-11-20T08:26:10;15.77;;;10.18;;
52564;SDS011;38460;53.106;7.004;2022-11-20T08:28:36;15.75;;;9.30;;
52564;SDS011;38460;53.106;7.004;2022-11-20T08:31:02;16.15;;;10.55;;
52564;SDS011;38460;53.106;7.004;2022-11-20T08:33:28;16.27;;;10.00;;
52564;SDS011;38460;53.106;7.004;2022-11-20T08:35:58;15.55;;;9.50;;
52564;SDS011;38460;53.106;7.004;2022-11-20T08:38:28;14.15;;;8.80;;
52564;SDS011;38460;53.106;7.004;2022-11-20T08:40:57;14.05;;;9.02;;
52564;SDS011;38460;53.106;7.004;2022-11-20T08:43:43;13.93;;;9.52;;
52564;SDS011;38460;53.106;7.004;2022-11-20T08:46:09;16.50;;;9.18;;
52564;SDS011;38460;53.106;7.004;2022-11-20T08:48:34;11.90;;;8.15;;
52564;SDS011;38460;53.106;7.004;2022-11-20T08:51:00;12.60;;;8.98;;
52564;SDS011;38460;53.106;7.004;2022-11-20T08:53:26;12.27;;;8.00;;
52564;SDS011;38460;53.106;7.004;2022-11-20T08:55:52;12.43;;;7.70;;
52564;SDS011;38460;53.106;7.004;2022-11-20T08:58:18;13.57;;;8.43;;
52564;SDS011;38460;53.106;7.004;2022-11-20T09:00:44;13.38;;;8.50;;
52564;SDS011;38460;53.106;7.004;2022-11-20T09:03:09;11.15;;;7.38;;
52564;SDS011;38460;53.106;7.004;2022-11-20T09:05:35;15.50;;;8.52;;
52564;SDS011;38460;53.106;7.004;2022-11-20T09:08:01;12.38;;;7.78;;
52564;SDS011;38460;53.106;7.004;2022-11-20T09:10:27;14.07;;;8.38;;
52564;SDS011;38460;53.106;7.004;2022-11-20T09:12:53;12.48;;;7.68;;
52564;SDS011;38460;53.106;7.004;2022-11-20T09:15:20;13.52;;;7.88;;
52564;SDS011;38460;53.106;7.004;2022-11-20T09:17:53;12.32;;;7.75;;
52564;SDS011;38460;53.106;7.004;2022-11-20T09:20:26;11.98;;;7.50;;
52564;SDS011;38460;53.106;7.004;2022-11-20T09:22:56;12.93;;;8.20;;
52564;SDS011;38460;53.106;7.004;2022-11-20T09:25:23;11.70;;;8.18;;
52564;SDS011;38460;53.106;7.004;2022-11-20T09:27:54;13.07;;;8.10;;
52564;SDS011;38460;53.106;7.004;2022-11-20T09:30:20;12.63;;;8.05;;
52564;SDS011;38460;53.106;7.004;2022-11-20T09:32:46;10.10;;;7.15;;
52564;SDS011;38460;53.106;7.004;2022-11-20T09:35:12;10.80;;;7.03;;
52564;SDS011;38460;53.106;7.004;2022-11-20T09:37:39;12.95;;;8.77;;
52564;SDS011;38460;53.106;7.004;2022-11-20T09:40:05;12.30;;;7.85;;
52564;SDS011;38460;53.106;7.004;2022-11-20T09:50:36;12.13;;;7.40;;
52564;SDS011;38460;53.106;7.004;2022-11-20T09:55:50;12.05;;;7.30;;
52564;SDS011;38460;53.106;7.004;2022-11-20T09:58:24;13.70;;;8.52;;
52564;SDS011;38460;53.106;7.004;2022-11-20T10:00:59;11.07;;;7.80;;
52564;SDS011;38460;53.106;7.004;2022-11-20T10:06:40;10.35;;;6.80;;
52564;SDS011;38460;53.106;7.004;2022-11-20T10:25:20;12.65;;;8.23;;
52564;SDS011;38460;53.106;7.004;2022-11-20T10:30:30;12.75;;;8.25;;
52564;SDS011;38460;53.106;7.004;2022-11-20T10:33:03;13.48;;;8.10;;
52564;SDS011;38460;53.106;7.004;2022-11-20T10:35:39;12.85;;;8.25;;
52564;SDS011;38460;53.106;7.004;2022-11-20T10:38:14;12.68;;;7.75;;
52564;SDS011;38460;53.106;7.004;2022-11-20T10:40:46;11.45;;;7.40;;
52564;SDS011;38460;53.106;7.004;2022-11-20T10:43:32;13.50;;;7.57;;
52564;SDS011;38460;53.106;7.004;2022-11-20T10:46:00;11.98;;;7.18;;
52564;SDS011;38460;53.106;7.004;2022-11-20T10:48:30;12.47;;;7.47;;
52564;SDS011;38460;53.106;7.004;2022-11-20T10:51:18;11.65;;;7.43;;
52564;SDS011;38460;53.106;7.004;2022-11-20T10:56:34;12.30;;;8.23;;
52564;SDS011;38460;53.106;7.004;2022-11-20T11:02:01;12.45;;;7.88;;
52564;SDS011;38460;53.106;7.004;2022-11-20T11:04:40;13.13;;;8.10;;
52564;SDS011;38460;53.106;7.004;2022-11-20T11:09:47;14.55;;;9.02;;
52564;SDS011;38460;53.106;7.004;2022-11-20T11:12:17;11.00;;;7.38;;
52564;SDS011;38460;53.106;7.004;2022-11-20T11:14:54;11.27;;;7.80;;
52564;SDS011;38460;53.106;7.004;2022-11-20T11:17:26;11.70;;;8.10;;
52564;SDS011;38460;53.106;7.004;2022-11-20T11:20:14;12.02;;;8.65;;
52564;SDS011;38460;53.106;7.004;2022-11-20T11:22:59;12.13;;;8.43;;
52564;SDS011;38460;53.106;7.004;2022-11-20T11:25:29;11.98;;;8.25;;
52564;SDS011;38460;53.106;7.004;2022-11-20T11:28:04;12.57;;;7.75;;
52564;SDS011;38460;53.106;7.004;2022-11-20T11:33:10;14.88;;;7.85;;
52564;SDS011;38460;53.106;7.004;2022-11-20T11:35:44;10.90;;;7.25;;
52564;SDS011;38460;53.106;7.004;2022-11-20T11:38:32;11.65;;;7.47;;
52564;SDS011;38460;53.106;7.004;2022-11-20T11:41:02;11.07;;;7.22;;
52564;SDS011;38460;53.106;7.004;2022-11-20T11:43:30;10.32;;;6.78;;
52564;SDS011;38460;53.106;7.004;2022-11-20T11:48:55;10.45;;;6.78;;
52564;SDS011;38460;53.106;7.004;2022-11-20T11:51:34;10.30;;;7.57;;
52564;SDS011;38460;53.106;7.004;2022-11-20T11:54:09;10.40;;;6.80;;
52564;SDS011;38460;53.106;7.004;2022-11-20T11:56:42;10.18;;;7.07;;
52564;SDS011;38460;53.106;7.004;2022-11-20T11:59:12;9.40;;;6.18;;
52564;SDS011;38460;53.106;7.004;2022-11-20T12:01:52;9.95;;;6.55;;
52564;SDS011;38460;53.106;7.004;2022-11-20T12:04:38;10.60;;;7.05;;
52564;SDS011;38460;53.106;7.004;2022-11-20T12:07:13;10.05;;;6.78;;
52564;SDS011;38460;53.106;7.004;2022-11-20T12:09:47;9.07;;;6.68;;
52564;SDS011;38460;53.106;7.004;2022-11-20T12:12:20;9.48;;;6.13;;
52564;SDS011;38460;53.106;7.004;2022-11-20T12:14:53;8.75;;;5.90;;
52564;SDS011;38460;53.106;7.004;2022-11-20T12:17:20;8.75;;;5.45;;
52564;SDS011;38460;53.106;7.004;2022-11-20T12:19:46;7.40;;;5.13;;
52564;SDS011;38460;53.106;7.004;2022-11-20T12:22:17;8.02;;;5.03;;
52564;SDS011;38460;53.106;7.004;2022-11-20T12:30:18;8.60;;;5.63;;
52564;SDS011;38460;53.106;7.004;2022-11-20T12:35:41;9.63;;;5.95;;
52564;SDS011;38460;53.106;7.004;2022-11-20T12:44:13;8.77;;;5.53;;
52564;SDS011;38460;53.106;7.004;2022-11-20T12:53:05;7.18;;;4.70;;
52564;SDS011;38460;53.106;7.004;2022-11-20T12:55:42;6.95;;;4.75;;
52564;SDS011;38460;53.106;7.004;2022-11-20T12:58:24;7.53;;;4.50;;
52564;SDS011;38460;53.106;7.004;2022-11-20T13:06:53;9.63;;;4.93;;
52564;SDS011;38460;53.106;7.004;2022-11-20T13:09:20;7.72;;;4.90;;
52564;SDS011;38460;53.106;7.004;2022-11-20T13:19:25;7.20;;;4.55;;
52564;SDS011;38460;53.106;7.004;2022-11-20T13:21:52;9.15;;;5.05;;
52564;SDS011;38460;53.106;7.004;2022-11-20T13:29:40;8.23;;;4.70;;
52564;SDS011;38460;53.106;7.004;2022-11-20T13:32:19;9.68;;;4.78;;
52564;SDS011;38460;53.106;7.004;2022-11-20T13:34:56;7.70;;;5.10;;
52564;SDS011;38460;53.106;7.004;2022-11-20T13:37:33;7.68;;;5.35;;
52564;SDS011;38460;53.106;7.004;2022-11-20T13:40:11;8.25;;;5.15;;
52564;SDS011;38460;53.106;7.004;2022-11-20T13:42:45;8.98;;;5.90;;
52564;SDS011;38460;53.106;7.004;2022-11-20T13:45:26;9.90;;;7.65;;
52564;SDS011;38460;53.106;7.004;2022-11-20T13:47:54;7.70;;;5.82;;
52564;SDS011;38460;53.106;7.004;2022-11-20T13:50:23;9.60;;;6.75;;
52564;SDS011;38460;53.106;7.004;2022-11-20T13:55:54;10.02;;;5.85;;
52564;SDS011;38460;53.106;7.004;2022-11-20T14:03:41;9.00;;;5.40;;
52564;SDS011;38460;53.106;7.004;2022-11-20T14:06:12;7.20;;;5.38;;
52564;SDS011;38460;53.106;7.004;2022-11-20T14:08:59;8.63;;;5.97;;
52564;SDS011;38460;53.106;7.004;2022-11-20T14:11:26;9.82;;;6.35;;
52564;SDS011;38460;53.106;7.004;2022-11-20T14:13:57;11.48;;;6.55;;
52564;SDS011;38460;53.106;7.004;2022-11-20T14:16:27;10.45;;;6.20;;
52564;SDS011;38460;53.106;7.004;2022-11-20T14:18:55;10.45;;;7.05;;
52564;SDS011;38460;53.106;7.004;2022-11-20T14:21:25;9.85;;;6.28;;
52564;SDS011;38460;53.106;7.004;2022-11-20T14:24:17;9.80;;;6.50;;
52564;SDS011;38460;53.106;7.004;2022-11-20T14:26:44;9.50;;;5.95;;
52564;SDS011;38460;53.106;7.004;2022-11-20T14:29:15;9.95;;;6.07;;
52564;SDS011;38460;53.106;7.004;2022-11-20T14:31:46;8.85;;;6.35;;
52564;SDS011;38460;53.106;7.004;2022-11-20T14:34:17;10.65;;;6.70;;
52564;SDS011;38460;53.106;7.004;2022-11-20T14:36:46;9.10;;;6.43;;
52564;SDS011;38460;53.106;7.004;2022-11-20T14:39:19;9.23;;;6.78;;
52564;SDS011;38460;53.106;7.004;2022-11-20T14:41:52;10.40;;;6.72;;
52564;SDS011;38460;53.106;7.004;2022-11-20T14:44:23;10.95;;;6.25;;
52564;SDS011;38460;53.106;7.004;2022-11-20T14:46:59;11.15;;;6.75;;
52564;SDS011;38460;53.106;7.004;2022-11-20T14:49:27;9.10;;;6.38;;
52564;SDS011;38460;53.106;7.004;2022-11-20T14:52:13;11.07;;;6.50;;
52564;SDS011;38460;53.106;7.004;2022-11-20T14:54:47;8.70;;;6.53;;
52564;SDS011;38460;53.106;7.004;2022-11-20T14:59:46;9.02;;;6.20;;
52564;SDS011;38460;53.106;7.004;2022-11-20T15:02:12;8.15;;;6.28;;
52564;SDS011;38460;53.106;7.004;2022-11-20T15:04:48;9.88;;;6.70;;
52564;SDS011;38460;53.106;7.004;2022-11-20T15:07:24;9.27;;;6.00;;
52564;SDS011;38460;53.106;7.004;2022-11-20T15:12:35;9.32;;;6.63;;
52564;SDS011;38460;53.106;7.004;2022-11-20T15:15:18;11.30;;;7.05;;
52564;SDS011;38460;53.106;7.004;2022-11-20T15:17:56;11.55;;;7.53;;
52564;SDS011;38460;53.106;7.004;2022-11-20T15:20:24;9.70;;;7.35;;
52564;SDS011;38460;53.106;7.004;2022-11-20T15:22:53;10.98;;;6.90;;
52564;SDS011;38460;53.106;7.004;2022-11-20T15:25:19;9.98;;;7.05;;
52564;SDS011;38460;53.106;7.004;2022-11-20T15:27:45;8.90;;;6.10;;
52564;SDS011;38460;53.106;7.004;2022-11-20T15:30:16;11.15;;;7.68;;
52564;SDS011;38460;53.106;7.004;2022-11-20T15:32:44;9.70;;;7.07;;
52564;SDS011;38460;53.106;7.004;2022-11-20T15:35:11;10.85;;;6.65;;
52564;SDS011;38460;53.106;7.004;2022-11-20T15:37:38;11.32;;;7.32;;
52564;SDS011;38460;53.106;7.004;2022-11-20T15:40:05;11.48;;;7.70;;
52564;SDS011;38460;53.106;7.004;2022-11-20T15:42:32;12.40;;;7.88;;
52564;SDS011;38460;53.106;7.004;2022-11-20T15:44:58;10.57;;;7.57;;
52564;SDS011;38460;53.106;7.004;2022-11-20T15:47:25;11.70;;;7.40;;
52564;SDS011;38460;53.106;7.004;2022-11-20T15:49:54;11.07;;;7.50;;
52564;SDS011;38460;53.106;7.004;2022-11-20T15:52:19;11.55;;;7.90;;
52564;SDS011;38460;53.106;7.004;2022-11-20T15:54:46;9.55;;;7.30;;
52564;SDS011;38460;53.106;7.004;2022-11-20T15:57:12;11.52;;;6.93;;
52564;SDS011;38460;53.106;7.004;2022-11-20T15:59:38;10.48;;;7.05;;
52564;SDS011;38460;53.106;7.004;2022-11-20T16:02:10;10.45;;;7.15;;
52564;SDS011;38460;53.106;7.004;2022-11-20T16:04:37;9.88;;;6.93;;
52564;SDS011;38460;53.106;7.004;2022-11-20T16:07:03;11.63;;;7.38;;
52564;SDS011;38460;53.106;7.004;2022-11-20T16:09:28;13.23;;;8.27;;
52564;SDS011;38460;53.106;7.004;2022-11-20T16:11:54;11.07;;;6.97;;
52564;SDS011;38460;53.106;7.004;2022-11-20T16:14:20;12.38;;;7.13;;
52564;SDS011;38460;53.106;7.004;2022-11-20T16:17:05;10.73;;;7.28;;
52564;SDS011;38460;53.106;7.004;2022-11-20T16:19:30;10.52;;;7.00;;
52564;SDS011;38460;53.106;7.004;2022-11-20T16:21:59;11.95;;;7.93;;
52564;SDS011;38460;53.106;7.004;2022-11-20T16:24:26;12.20;;;7.80;;
52564;SDS011;38460;53.106;7.004;2022-11-20T16:26:55;10.63;;;7.55;;
52564;SDS011;38460;53.106;7.004;2022-11-20T16:29:21;11.18;;;7.95;;
52564;SDS011;38460;53.106;7.004;2022-11-20T16:31:47;11.70;;;7.40;;